sensor_id;sensor_type;location;lat;lon;timestamp;P1;durP1;ratioP1;P2;durP2;ratioP2
33724;SDS011;20056;0.000;0.000;2022-12-26T00:01:34;0.80;;;0.80;;
33724;SDS011;20056;0.000;0.000;2022-12-26T00:04:01;1.20;;;1.00;;
33724;SDS011;20056;0.000;0.000;2022-12-26T00:06:28;1.00;;;0.90;;
33724;SDS011;20056;0.000;0.000;2022-12-26T00:08:55;1.92;;;1.00;;
33724;SDS011;20056;0.000;0.000;2022-12-26T00:11:21;0.80;;;0.80;;
33724;SDS011;20056;0.000;0.000;2022-12-26T00:13:52;1.52;;;0.88;;
33724;SDS011;20056;0.000;0.000;2022-12-26T00:16:22;0.82;;;0.82;;
33724;SDS011;20056;0.000;0.000;2022-12-26T00:18:48;1.00;;;0.90;;
33724;SDS011;20056;0.000;0.000;2022-12-26T00:21:15;1.10;;;1.00;;
33724;SDS011;20056;0.000;0.000;2022-12-26T00:23:42;1.02;;;0.90;;
33724;SDS011;20056;0.000;0.000;2022-12-26T00:26:12;1.23;;;0.90;;
33724;SDS011;20056;0.000;0.000;2022-12-26T00:28:39;0.80;;;0.80;;
33724;SDS011;20056;0.000;0.000;2022-12-26T00:31:06;0.90;;;0.90;;
33724;SDS011;20056;0.000;0.000;2022-12-26T00:33:34;2.03;;;1.00;;
33724;SDS011;20056;0.000;0.000;2022-12-26T00:36:04;1.80;;;1.00;;
33724;SDS011;20056;0.000;0.000;2022-12-26T00:38:35;0.80;;;0.80;;
33724;SDS011;20056;0.000;0.000;2022-12-26T00:41:01;1.27;;;0.90;;
33724;SDS011;20056;0.000;0.000;2022-12-26T00:43:27;0.82;;;0.70;;
33724;SDS011;20056;0.000;0.000;2022-12-26T00:45:52;2.42;;;0.80;;
33724;SDS011;20056;0.000;0.000;2022-12-26T00:48:18;1.27;;;0.90;;
33724;SDS011;20056;0.000;0.000;2022-12-26T00:50:44;0.85;;;0.80;;
33724;SDS011;20056;0.000;0.000;2022-12-26T00:53:09;0.70;;;0.70;;
33724;SDS011;20056;0.000;0.000;2022-12-26T00:55:35;2.25;;;0.80;;
33724;SDS011;20056;0.000;0.000;2022-12-26T00:58:00;0.77;;;0.77;;
33724;SDS011;20056;0.000;0.000;2022-12-26T01:00:26;1.08;;;0.90;;
33724;SDS011;20056;0.000;0.000;2022-12-26T01:02:51;1.00;;;0.90;;
33724;SDS011;20056;0.000;0.000;2022-12-26T01:05:17;0.73;;;0.70;;
33724;SDS011;20056;0.000;0.000;2022-12-26T01:07:44;1.92;;;0.85;;
33724;SDS011;20056;0.000;0.000;2022-12-26T01:10:11;1.00;;;0.85;;
33724;SDS011;20056;0.000;0.000;2022-12-26T01:12:37;1.65;;;0.88;;
33724;SDS011;20056;0.000;0.000;2022-12-26T01:15:03;0.77;;;0.77;;
33724;SDS011;20056;0.000;0.000;2022-12-26T01:17:30;1.30;;;0.77;;
33724;SDS011;20056;0.000;0.000;2022-12-26T01:19:56;1.50;;;0.80;;
33724;SDS011;20056;0.000;0.000;2022-12-26T01:22:22;0.95;;;0.85;;
33724;SDS011;20056;0.000;0.000;2022-12-26T01:24:51;2.08;;;0.82;;
33724;SDS011;20056;0.000;0.000;2022-12-26T01:27:18;0.80;;;0.80;;
33724;SDS011;20056;0.000;0.000;2022-12-26T01:29:43;0.70;;;0.70;;
33724;SDS011;20056;0.000;0.000;2022-12-26T01:32:09;0.82;;;0.73;;
33724;SDS011;20056;0.000;0.000;2022-12-26T01:34:34;1.50;;;1.08;;
33724;SDS011;20056;0.000;0.000;2022-12-26T01:37:00;0.80;;;0.80;;
33724;SDS011;20056;0.000;0.000;2022-12-26T01:39:25;0.80;;;0.80;;
33724;SDS011;20056;0.000;0.000;2022-12-26T01:41:51;0.88;;;0.80;;
33724;SDS011;20056;0.000;0.000;2022-12-26T01:47:20;1.00;;;0.80;;
33724;SDS011;20056;0.000;0.000;2022-12-26T01:49:52;0.90;;;0.90;;
33724;SDS011;20056;0.000;0.000;2022-12-26T01:52:41;0.85;;;0.80;;
33724;SDS011;20056;0.000;0.000;2022-12-26T01:55:09;0.80;;;0.70;;
33724;SDS011;20056;0.000;0.000;2022-12-26T01:57:42;0.65;;;0.60;;
33724;SDS011;20056;0.000;0.000;2022-12-26T02:00:10;1.23;;;0.85;;
33724;SDS011;20056;0.000;0.000;2022-12-26T02:02:36;0.70;;;0.70;;
33724;SDS011;20056;0.000;0.000;2022-12-26T02:05:22;1.23;;;0.95;;
33724;SDS011;20056;0.000;0.000;2022-12-26T02:07:58;1.05;;;0.90;;
33724;SDS011;20056;0.000;0.000;2022-12-26T02:10:25;0.70;;;0.70;;
33724;SDS011;20056;0.000;0.000;2022-12-26T02:12:52;0.88;;;0.80;;
33724;SDS011;20056;0.000;0.000;2022-12-26T02:15:18;1.30;;;0.90;;
33724;SDS011;20056;0.000;0.000;2022-12-26T02:17:43;0.82;;;0.63;;
33724;SDS011;20056;0.000;0.000;2022-12-26T02:22:53;0.70;;;0.70;;
33724;SDS011;20056;0.000;0.000;2022-12-26T02:31:06;0.70;;;0.70;;
33724;SDS011;20056;0.000;0.000;2022-12-26T02:33:51;0.80;;;0.80;;
33724;SDS011;20056;0.000;0.000;2022-12-26T02:36:43;0.82;;;0.70;;
33724;SDS011;20056;0.000;0.000;2022-12-26T02:39:45;1.00;;;0.90;;
33724;SDS011;20056;0.000;0.000;2022-12-26T02:42:54;0.80;;;0.80;;
33724;SDS011;20056;0.000;0.000;2022-12-26T02:45:29;0.70;;;0.70;;
33724;SDS011;20056;0.000;0.000;2022-12-26T02:51:19;0.80;;;0.80;;
33724;SDS011;20056;0.000;0.000;2022-12-26T02:57:50;0.80;;;0.80;;
33724;SDS011;20056;0.000;0.000;2022-12-26T03:00:42;0.80;;;0.80;;
33724;SDS011;20056;0.000;0.000;2022-12-26T03:03:29;1.10;;;0.80;;
33724;SDS011;20056;0.000;0.000;2022-12-26T03:06:20;2.22;;;0.90;;
33724;SDS011;20056;0.000;0.000;2022-12-26T03:09:12;1.38;;;0.88;;
33724;SDS011;20056;0.000;0.000;2022-12-26T03:12:02;1.08;;;0.77;;
33724;SDS011;20056;0.000;0.000;2022-12-26T03:17:27;1.55;;;0.95;;
33724;SDS011;20056;0.000;0.000;2022-12-26T03:20:05;0.80;;;0.73;;
33724;SDS011;20056;0.000;0.000;2022-12-26T03:22:42;0.75;;;0.75;;
33724;SDS011;20056;0.000;0.000;2022-12-26T03:28:08;0.73;;;0.73;;
33724;SDS011;20056;0.000;0.000;2022-12-26T03:30:34;0.80;;;0.80;;
33724;SDS011;20056;0.000;0.000;2022-12-26T03:36:04;0.80;;;0.80;;
33724;SDS011;20056;0.000;0.000;2022-12-26T03:38:33;1.13;;;0.80;;
33724;SDS011;20056;0.000;0.000;2022-12-26T03:47:35;1.10;;;0.70;;
33724;SDS011;20056;0.000;0.000;2022-12-26T03:50:39;1.25;;;0.80;;
33724;SDS011;20056;0.000;0.000;2022-12-26T03:53:33;1.95;;;0.80;;
33724;SDS011;20056;0.000;0.000;2022-12-26T03:59:23;0.70;;;0.70;;
33724;SDS011;20056;0.000;0.000;2022-12-26T04:02:12;0.82;;;0.82;;
33724;SDS011;20056;0.000;0.000;2022-12-26T04:04:59;1.02;;;0.80;;
33724;SDS011;20056;0.000;0.000;2022-12-26T04:07:49;1.00;;;0.90;;
33724;SDS011;20056;0.000;0.000;2022-12-26T04:10:38;1.08;;;0.80;;
33724;SDS011;20056;0.000;0.000;2022-12-26T04:13:28;0.80;;;0.80;;
33724;SDS011;20056;0.000;0.000;2022-12-26T04:16:47;1.02;;;0.80;;
33724;SDS011;20056;0.000;0.000;2022-12-26T04:19:49;2.15;;;0.80;;
33724;SDS011;20056;0.000;0.000;2022-12-26T04:25:39;1.00;;;0.90;;
33724;SDS011;20056;0.000;0.000;2022-12-26T04:28:32;0.95;;;0.70;;
33724;SDS011;20056;0.000;0.000;2022-12-26T04:31:27;0.85;;;0.80;;
33724;SDS011;20056;0.000;0.000;2022-12-26T04:34:21;0.70;;;0.70;;
33724;SDS011;20056;0.000;0.000;2022-12-26T04:40:02;0.80;;;0.80;;
33724;SDS011;20056;0.000;0.000;2022-12-26T04:42:50;1.25;;;0.85;;
33724;SDS011;20056;0.000;0.000;2022-12-26T04:45:35;1.08;;;0.80;;
33724;SDS011;20056;0.000;0.000;2022-12-26T04:48:01;0.70;;;0.70;;
33724;SDS011;20056;0.000;0.000;2022-12-26T04:50:49;1.00;;;0.90;;
33724;SDS011;20056;0.000;0.000;2022-12-26T04:53:16;0.80;;;0.80;;
33724;SDS011;20056;0.000;0.000;2022-12-26T04:55:42;1.55;;;0.80;;
33724;SDS011;20056;0.000;0.000;2022-12-26T04:58:09;0.70;;;0.70;;
33724;SDS011;20056;0.000;0.000;2022-12-26T05:00:34;0.80;;;0.80;;
33724;SDS011;20056;0.000;0.000;2022-12-26T05:03:00;0.80;;;0.80;;
33724;SDS011;20056;0.000;0.000;2022-12-26T05:05:58;0.70;;;0.70;;
33724;SDS011;20056;0.000;0.000;2022-12-26T05:08:43;0.88;;;0.73;;
33724;SDS011;20056;0.000;0.000;2022-12-26T05:11:29;0.90;;;0.80;;
33724;SDS011;20056;0.000;0.000;2022-12-26T05:13:57;1.13;;;0.90;;
33724;SDS011;20056;0.000;0.000;2022-12-26T05:16:23;0.70;;;0.70;;
33724;SDS011;20056;0.000;0.000;2022-12-26T05:19:17;0.90;;;0.90;;
33724;SDS011;20056;0.000;0.000;2022-12-26T05:22:01;0.90;;;0.90;;
33724;SDS011;20056;0.000;0.000;2022-12-26T05:24:47;1.17;;;0.90;;
33724;SDS011;20056;0.000;0.000;2022-12-26T05:27:33;0.80;;;0.80;;
33724;SDS011;20056;0.000;0.000;2022-12-26T05:30:19;0.77;;;0.77;;
33724;SDS011;20056;0.000;0.000;2022-12-26T05:32:45;0.80;;;0.80;;
33724;SDS011;20056;0.000;0.000;2022-12-26T05:35:29;0.70;;;0.70;;
33724;SDS011;20056;0.000;0.000;2022-12-26T05:37:56;0.60;;;0.60;;
33724;SDS011;20056;0.000;0.000;2022-12-26T05:40:21;1.00;;;0.90;;
33724;SDS011;20056;0.000;0.000;2022-12-26T05:42:47;0.90;;;0.90;;
33724;SDS011;20056;0.000;0.000;2022-12-26T05:45:12;0.85;;;0.85;;
33724;SDS011;20056;0.000;0.000;2022-12-26T05:47:38;0.80;;;0.80;;
33724;SDS011;20056;0.000;0.000;2022-12-26T05:50:04;0.77;;;0.77;;
33724;SDS011;20056;0.000;0.000;2022-12-26T05:52:30;0.88;;;0.88;;
33724;SDS011;20056;0.000;0.000;2022-12-26T05:54:55;0.80;;;0.80;;
33724;SDS011;20056;0.000;0.000;2022-12-26T05:57:21;0.80;;;0.80;;
33724;SDS011;20056;0.000;0.000;2022-12-26T05:59:46;1.15;;;1.05;;
33724;SDS011;20056;0.000;0.000;2022-12-26T06:02:12;1.17;;;0.73;;
33724;SDS011;20056;0.000;0.000;2022-12-26T06:04:38;0.85;;;0.85;;
33724;SDS011;20056;0.000;0.000;2022-12-26T06:07:03;0.85;;;0.80;;
33724;SDS011;20056;0.000;0.000;2022-12-26T06:09:29;0.93;;;0.70;;
33724;SDS011;20056;0.000;0.000;2022-12-26T06:11:55;1.05;;;0.77;;
33724;SDS011;20056;0.000;0.000;2022-12-26T06:14:20;1.05;;;0.88;;
33724;SDS011;20056;0.000;0.000;2022-12-26T06:16:46;0.80;;;0.80;;
33724;SDS011;20056;0.000;0.000;2022-12-26T06:19:11;0.70;;;0.70;;
33724;SDS011;20056;0.000;0.000;2022-12-26T06:21:37;0.90;;;0.90;;
33724;SDS011;20056;0.000;0.000;2022-12-26T06:24:02;1.58;;;0.90;;
33724;SDS011;20056;0.000;0.000;2022-12-26T06:26:28;1.88;;;0.88;;
33724;SDS011;20056;0.000;0.000;2022-12-26T06:28:54;2.88;;;1.40;;
33724;SDS011;20056;0.000;0.000;2022-12-26T06:31:20;2.00;;;1.50;;
33724;SDS011;20056;0.000;0.000;2022-12-26T06:33:48;3.60;;;1.73;;
33724;SDS011;20056;0.000;0.000;2022-12-26T06:36:16;4.60;;;2.05;;
33724;SDS011;20056;0.000;0.000;2022-12-26T06:38:45;3.63;;;1.95;;
33724;SDS011;20056;0.000;0.000;2022-12-26T06:41:15;3.75;;;2.30;;
33724;SDS011;20056;0.000;0.000;2022-12-26T06:43:42;4.30;;;2.50;;
33724;SDS011;20056;0.000;0.000;2022-12-26T06:46:09;4.93;;;2.95;;
33724;SDS011;20056;0.000;0.000;2022-12-26T06:48:38;4.78;;;2.60;;
33724;SDS011;20056;0.000;0.000;2022-12-26T06:51:05;4.40;;;2.80;;
33724;SDS011;20056;0.000;0.000;2022-12-26T06:53:33;4.30;;;2.30;;
33724;SDS011;20056;0.000;0.000;2022-12-26T06:56:06;3.92;;;2.40;;
33724;SDS011;20056;0.000;0.000;2022-12-26T06:58:33;3.72;;;2.30;;
33724;SDS011;20056;0.000;0.000;2022-12-26T07:01:02;4.18;;;2.30;;
33724;SDS011;20056;0.000;0.000;2022-12-26T07:03:29;5.18;;;2.28;;
33724;SDS011;20056;0.000;0.000;2022-12-26T07:05:54;4.57;;;2.25;;
33724;SDS011;20056;0.000;0.000;2022-12-26T07:08:20;5.40;;;2.70;;
33724;SDS011;20056;0.000;0.000;2022-12-26T07:10:45;3.83;;;2.20;;
33724;SDS011;20056;0.000;0.000;2022-12-26T07:13:11;8.63;;;2.47;;
33724;SDS011;20056;0.000;0.000;2022-12-26T07:15:37;6.40;;;2.40;;
33724;SDS011;20056;0.000;0.000;2022-12-26T07:18:02;3.83;;;2.30;;
33724;SDS011;20056;0.000;0.000;2022-12-26T07:20:28;3.85;;;2.30;;
33724;SDS011;20056;0.000;0.000;2022-12-26T07:22:53;4.85;;;2.78;;
33724;SDS011;20056;0.000;0.000;2022-12-26T07:25:19;5.15;;;2.47;;
33724;SDS011;20056;0.000;0.000;2022-12-26T07:27:44;5.55;;;2.22;;
33724;SDS011;20056;0.000;0.000;2022-12-26T07:30:10;5.78;;;2.20;;
33724;SDS011;20056;0.000;0.000;2022-12-26T07:32:36;5.30;;;2.40;;
33724;SDS011;20056;0.000;0.000;2022-12-26T07:35:01;6.97;;;2.30;;
33724;SDS011;20056;0.000;0.000;2022-12-26T07:37:27;4.68;;;2.45;;
33724;SDS011;20056;0.000;0.000;2022-12-26T07:39:53;3.38;;;2.40;;
33724;SDS011;20056;0.000;0.000;2022-12-26T07:42:19;5.20;;;2.53;;
33724;SDS011;20056;0.000;0.000;2022-12-26T07:44:44;7.50;;;2.13;;
33724;SDS011;20056;0.000;0.000;2022-12-26T07:47:10;3.95;;;2.10;;
33724;SDS011;20056;0.000;0.000;2022-12-26T07:49:36;4.80;;;2.67;;
33724;SDS011;20056;0.000;0.000;2022-12-26T07:52:02;4.93;;;2.20;;
33724;SDS011;20056;0.000;0.000;2022-12-26T07:54:28;4.10;;;1.95;;
33724;SDS011;20056;0.000;0.000;2022-12-26T07:56:56;3.75;;;2.10;;
33724;SDS011;20056;0.000;0.000;2022-12-26T07:59:21;5.28;;;2.40;;
33724;SDS011;20056;0.000;0.000;2022-12-26T08:01:47;3.78;;;2.25;;
33724;SDS011;20056;0.000;0.000;2022-12-26T08:04:12;5.57;;;2.00;;
33724;SDS011;20056;0.000;0.000;2022-12-26T08:06:38;3.72;;;2.10;;
33724;SDS011;20056;0.000;0.000;2022-12-26T08:09:04;4.28;;;2.25;;
33724;SDS011;20056;0.000;0.000;2022-12-26T08:11:33;5.88;;;2.03;;
33724;SDS011;20056;0.000;0.000;2022-12-26T08:13:59;7.63;;;2.33;;
33724;SDS011;20056;0.000;0.000;2022-12-26T08:16:25;3.33;;;1.75;;
33724;SDS011;20056;0.000;0.000;2022-12-26T08:18:51;4.68;;;2.03;;
33724;SDS011;20056;0.000;0.000;2022-12-26T08:21:17;5.72;;;2.40;;
33724;SDS011;20056;0.000;0.000;2022-12-26T08:23:43;4.25;;;2.30;;
33724;SDS011;20056;0.000;0.000;2022-12-26T08:26:11;7.38;;;2.30;;
33724;SDS011;20056;0.000;0.000;2022-12-26T08:28:37;2.90;;;1.90;;
33724;SDS011;20056;0.000;0.000;2022-12-26T08:31:06;4.53;;;2.33;;
33724;SDS011;20056;0.000;0.000;2022-12-26T08:33:32;4.72;;;2.08;;
33724;SDS011;20056;0.000;0.000;2022-12-26T08:36:06;4.00;;;2.22;;
33724;SDS011;20056;0.000;0.000;2022-12-26T08:38:34;3.03;;;2.08;;
33724;SDS011;20056;0.000;0.000;2022-12-26T08:41:00;4.50;;;1.90;;
33724;SDS011;20056;0.000;0.000;2022-12-26T08:43:25;2.67;;;1.90;;
33724;SDS011;20056;0.000;0.000;2022-12-26T08:48:23;4.15;;;2.33;;
33724;SDS011;20056;0.000;0.000;2022-12-26T08:50:54;3.75;;;2.15;;
33724;SDS011;20056;0.000;0.000;2022-12-26T08:53:23;2.58;;;2.00;;
33724;SDS011;20056;0.000;0.000;2022-12-26T08:55:50;4.03;;;2.17;;
33724;SDS011;20056;0.000;0.000;2022-12-26T08:58:16;3.47;;;2.35;;
33724;SDS011;20056;0.000;0.000;2022-12-26T09:00:41;4.43;;;2.15;;
33724;SDS011;20056;0.000;0.000;2022-12-26T09:03:07;3.35;;;1.85;;
33724;SDS011;20056;0.000;0.000;2022-12-26T09:05:33;2.67;;;1.90;;
33724;SDS011;20056;0.000;0.000;2022-12-26T09:07:58;4.07;;;2.05;;
33724;SDS011;20056;0.000;0.000;2022-12-26T09:10:24;2.88;;;1.90;;
33724;SDS011;20056;0.000;0.000;2022-12-26T09:12:50;4.10;;;2.10;;
33724;SDS011;20056;0.000;0.000;2022-12-26T09:15:16;3.03;;;2.00;;
33724;SDS011;20056;0.000;0.000;2022-12-26T09:17:41;5.03;;;2.10;;
33724;SDS011;20056;0.000;0.000;2022-12-26T09:20:07;4.35;;;2.08;;
33724;SDS011;20056;0.000;0.000;2022-12-26T09:22:33;5.00;;;2.40;;
33724;SDS011;20056;0.000;0.000;2022-12-26T09:25:18;3.58;;;2.10;;
33724;SDS011;20056;0.000;0.000;2022-12-26T09:27:44;4.00;;;2.00;;
33724;SDS011;20056;0.000;0.000;2022-12-26T09:30:11;3.35;;;2.15;;
33724;SDS011;20056;0.000;0.000;2022-12-26T09:32:37;5.35;;;2.40;;
33724;SDS011;20056;0.000;0.000;2022-12-26T09:35:02;2.95;;;2.15;;
33724;SDS011;20056;0.000;0.000;2022-12-26T09:37:28;6.47;;;2.38;;
33724;SDS011;20056;0.000;0.000;2022-12-26T09:39:53;3.15;;;2.03;;
33724;SDS011;20056;0.000;0.000;2022-12-26T09:42:22;3.92;;;2.10;;
33724;SDS011;20056;0.000;0.000;2022-12-26T09:47:58;3.85;;;2.10;;
33724;SDS011;20056;0.000;0.000;2022-12-26T09:50:31;6.25;;;2.10;;
33724;SDS011;20056;0.000;0.000;2022-12-26T09:53:01;3.65;;;1.85;;
33724;SDS011;20056;0.000;0.000;2022-12-26T09:55:39;4.18;;;2.10;;
33724;SDS011;20056;0.000;0.000;2022-12-26T09:58:28;4.63;;;2.03;;
33724;SDS011;20056;0.000;0.000;2022-12-26T10:11:38;3.72;;;2.40;;
33724;SDS011;20056;0.000;0.000;2022-12-26T10:14:15;3.47;;;2.35;;
33724;SDS011;20056;0.000;0.000;2022-12-26T10:16:51;5.07;;;2.60;;
33724;SDS011;20056;0.000;0.000;2022-12-26T10:25:42;4.57;;;2.53;;
33724;SDS011;20056;0.000;0.000;2022-12-26T10:34:07;5.50;;;2.40;;
33724;SDS011;20056;0.000;0.000;2022-12-26T10:36:51;4.07;;;2.42;;
33724;SDS011;20056;0.000;0.000;2022-12-26T10:42:32;3.83;;;2.67;;
33724;SDS011;20056;0.000;0.000;2022-12-26T10:44:58;3.85;;;2.42;;
33724;SDS011;20056;0.000;0.000;2022-12-26T10:47:36;3.03;;;2.13;;
33724;SDS011;20056;0.000;0.000;2022-12-26T10:50:04;3.95;;;2.47;;
33724;SDS011;20056;0.000;0.000;2022-12-26T10:52:31;2.70;;;1.85;;
33724;SDS011;20056;0.000;0.000;2022-12-26T10:54:59;3.97;;;2.53;;
33724;SDS011;20056;0.000;0.000;2022-12-26T10:57:29;5.38;;;2.65;;
33724;SDS011;20056;0.000;0.000;2022-12-26T10:59:59;4.07;;;2.45;;
33724;SDS011;20056;0.000;0.000;2022-12-26T11:02:27;3.70;;;2.13;;
33724;SDS011;20056;0.000;0.000;2022-12-26T11:07:22;4.55;;;2.10;;
33724;SDS011;20056;0.000;0.000;2022-12-26T11:09:51;3.45;;;1.73;;
33724;SDS011;20056;0.000;0.000;2022-12-26T11:12:22;5.22;;;1.92;;
33724;SDS011;20056;0.000;0.000;2022-12-26T11:15:03;5.75;;;2.25;;
33724;SDS011;20056;0.000;0.000;2022-12-26T11:17:52;9.40;;;2.13;;
33724;SDS011;20056;0.000;0.000;2022-12-26T11:22:45;4.75;;;2.22;;
33724;SDS011;20056;0.000;0.000;2022-12-26T11:27:42;11.38;;;2.65;;
33724;SDS011;20056;0.000;0.000;2022-12-26T11:32:38;8.60;;;2.67;;
33724;SDS011;20056;0.000;0.000;2022-12-26T11:35:05;25.90;;;3.72;;
33724;SDS011;20056;0.000;0.000;2022-12-26T11:37:41;9.52;;;2.50;;
33724;SDS011;20056;0.000;0.000;2022-12-26T11:40:19;13.25;;;2.63;;
33724;SDS011;20056;0.000;0.000;2022-12-26T11:43:02;8.55;;;2.50;;
33724;SDS011;20056;0.000;0.000;2022-12-26T11:45:30;8.80;;;2.72;;
33724;SDS011;20056;0.000;0.000;2022-12-26T11:48:01;9.77;;;2.55;;
33724;SDS011;20056;0.000;0.000;2022-12-26T11:50:32;6.47;;;2.67;;
33724;SDS011;20056;0.000;0.000;2022-12-26T11:53:08;8.60;;;2.30;;
33724;SDS011;20056;0.000;0.000;2022-12-26T11:55:41;7.00;;;2.10;;
33724;SDS011;20056;0.000;0.000;2022-12-26T12:03:03;7.43;;;2.25;;
33724;SDS011;20056;0.000;0.000;2022-12-26T12:06:00;10.63;;;2.35;;
33724;SDS011;20056;0.000;0.000;2022-12-26T12:09:34;5.25;;;2.00;;
33724;SDS011;20056;0.000;0.000;2022-12-26T12:11:30;5.07;;;2.20;;
33724;SDS011;20056;0.000;0.000;2022-12-26T12:14:40;10.48;;;2.42;;
33724;SDS011;20056;0.000;0.000;2022-12-26T12:25:18;4.55;;;1.88;;
33724;SDS011;20056;0.000;0.000;2022-12-26T12:28:10;7.68;;;2.28;;
33724;SDS011;20056;0.000;0.000;2022-12-26T12:36:23;3.90;;;1.65;;
33724;SDS011;20056;0.000;0.000;2022-12-26T12:39:05;5.88;;;1.90;;
33724;SDS011;20056;0.000;0.000;2022-12-26T12:50:12;5.15;;;1.63;;
33724;SDS011;20056;0.000;0.000;2022-12-26T12:52:49;4.68;;;1.83;;
33724;SDS011;20056;0.000;0.000;2022-12-26T13:01:46;4.63;;;2.20;;
33724;SDS011;20056;0.000;0.000;2022-12-26T13:04:18;5.15;;;2.20;;
33724;SDS011;20056;0.000;0.000;2022-12-26T13:06:55;5.75;;;2.05;;
33724;SDS011;20056;0.000;0.000;2022-12-26T13:09:42;6.28;;;1.98;;
33724;SDS011;20056;0.000;0.000;2022-12-26T13:12:14;6.03;;;2.22;;
33724;SDS011;20056;0.000;0.000;2022-12-26T13:14:49;5.95;;;2.00;;
33724;SDS011;20056;0.000;0.000;2022-12-26T13:17:42;4.10;;;1.65;;
33724;SDS011;20056;0.000;0.000;2022-12-26T13:20:15;3.65;;;1.60;;
33724;SDS011;20056;0.000;0.000;2022-12-26T13:22:47;3.72;;;1.70;;
33724;SDS011;20056;0.000;0.000;2022-12-26T13:25:42;3.78;;;1.75;;
33724;SDS011;20056;0.000;0.000;2022-12-26T13:28:12;4.07;;;1.70;;
33724;SDS011;20056;0.000;0.000;2022-12-26T13:30:44;4.00;;;2.00;;
33724;SDS011;20056;0.000;0.000;2022-12-26T13:33:11;5.80;;;1.60;;
33724;SDS011;20056;0.000;0.000;2022-12-26T13:35:50;4.05;;;1.55;;
33724;SDS011;20056;0.000;0.000;2022-12-26T13:38:24;3.85;;;1.40;;
33724;SDS011;20056;0.000;0.000;2022-12-26T13:41:14;3.17;;;1.70;;
33724;SDS011;20056;0.000;0.000;2022-12-26T13:44:04;5.55;;;2.05;;
33724;SDS011;20056;0.000;0.000;2022-12-26T13:49:27;5.07;;;1.63;;
33724;SDS011;20056;0.000;0.000;2022-12-26T13:54:35;5.97;;;1.50;;
33724;SDS011;20056;0.000;0.000;2022-12-26T13:57:36;5.72;;;1.77;;
33724;SDS011;20056;0.000;0.000;2022-12-26T14:10:59;3.58;;;1.52;;
33724;SDS011;20056;0.000;0.000;2022-12-26T14:16:07;3.85;;;1.42;;
33724;SDS011;20056;0.000;0.000;2022-12-26T14:27:18;3.47;;;1.48;;
33724;SDS011;20056;0.000;0.000;2022-12-26T14:30:04;7.20;;;1.60;;
33724;SDS011;20056;0.000;0.000;2022-12-26T14:38:28;6.00;;;1.50;;
33724;SDS011;20056;0.000;0.000;2022-12-26T14:41:15;4.43;;;1.50;;
33724;SDS011;20056;0.000;0.000;2022-12-26T14:47:01;2.67;;;1.40;;
33724;SDS011;20056;0.000;0.000;2022-12-26T14:54:48;4.43;;;1.10;;
33724;SDS011;20056;0.000;0.000;2022-12-26T14:57:34;1.67;;;1.10;;
33724;SDS011;20056;0.000;0.000;2022-12-26T15:03:11;3.30;;;1.38;;
33724;SDS011;20056;0.000;0.000;2022-12-26T15:05:43;2.35;;;1.20;;
33724;SDS011;20056;0.000;0.000;2022-12-26T15:13:32;1.50;;;1.10;;
33724;SDS011;20056;0.000;0.000;2022-12-26T15:30:22;2.20;;;1.40;;
33724;SDS011;20056;0.000;0.000;2022-12-26T15:36:02;2.05;;;1.38;;
33724;SDS011;20056;0.000;0.000;2022-12-26T15:44:13;1.85;;;1.40;;
33724;SDS011;20056;0.000;0.000;2022-12-26T16:00:46;2.95;;;1.60;;
33724;SDS011;20056;0.000;0.000;2022-12-26T16:11:29;3.33;;;1.73;;
33724;SDS011;20056;0.000;0.000;2022-12-26T16:14:09;3.15;;;1.73;;
33724;SDS011;20056;0.000;0.000;2022-12-26T16:16:49;2.42;;;1.60;;
33724;SDS011;20056;0.000;0.000;2022-12-26T16:19:22;3.97;;;1.85;;
33724;SDS011;20056;0.000;0.000;2022-12-26T16:21:53;3.45;;;1.92;;
33724;SDS011;20056;0.000;0.000;2022-12-26T16:24:41;2.40;;;1.70;;
33724;SDS011;20056;0.000;0.000;2022-12-26T16:27:08;2.55;;;1.60;;
33724;SDS011;20056;0.000;0.000;2022-12-26T16:29:45;3.13;;;1.77;;
33724;SDS011;20056;0.000;0.000;2022-12-26T16:34:44;2.67;;;1.80;;
33724;SDS011;20056;0.000;0.000;2022-12-26T16:37:16;3.97;;;1.77;;
33724;SDS011;20056;0.000;0.000;2022-12-26T16:39:44;3.65;;;2.10;;
33724;SDS011;20056;0.000;0.000;2022-12-26T16:42:28;4.35;;;2.15;;
33724;SDS011;20056;0.000;0.000;2022-12-26T16:44:55;3.65;;;1.83;;
33724;SDS011;20056;0.000;0.000;2022-12-26T16:47:21;2.35;;;1.60;;
33724;SDS011;20056;0.000;0.000;2022-12-26T16:49:48;3.45;;;1.80;;
33724;SDS011;20056;0.000;0.000;2022-12-26T16:54:55;5.53;;;2.42;;
33724;SDS011;20056;0.000;0.000;2022-12-26T16:57:20;9.05;;;4.38;;
33724;SDS011;20056;0.000;0.000;2022-12-26T17:02:20;6.47;;;3.33;;
33724;SDS011;20056;0.000;0.000;2022-12-26T17:07:16;5.65;;;2.97;;
33724;SDS011;20056;0.000;0.000;2022-12-26T17:09:44;6.03;;;2.88;;
33724;SDS011;20056;0.000;0.000;2022-12-26T17:12:20;6.22;;;3.00;;
33724;SDS011;20056;0.000;0.000;2022-12-26T17:14:48;5.90;;;2.88;;
33724;SDS011;20056;0.000;0.000;2022-12-26T17:19:47;6.43;;;3.55;;
33724;SDS011;20056;0.000;0.000;2022-12-26T17:24:45;6.68;;;3.85;;
33724;SDS011;20056;0.000;0.000;2022-12-26T17:27:22;4.13;;;2.92;;
33724;SDS011;20056;0.000;0.000;2022-12-26T17:29:58;6.88;;;2.80;;
33724;SDS011;20056;0.000;0.000;2022-12-26T17:35:10;4.90;;;2.83;;
33724;SDS011;20056;0.000;0.000;2022-12-26T17:37:40;7.50;;;2.90;;
33724;SDS011;20056;0.000;0.000;2022-12-26T17:40:18;5.60;;;2.40;;
33724;SDS011;20056;0.000;0.000;2022-12-26T17:45:14;4.40;;;2.45;;
33724;SDS011;20056;0.000;0.000;2022-12-26T17:47:54;4.55;;;2.38;;
33724;SDS011;20056;0.000;0.000;2022-12-26T17:50:21;4.13;;;2.20;;
33724;SDS011;20056;0.000;0.000;2022-12-26T17:52:49;4.10;;;2.25;;
33724;SDS011;20056;0.000;0.000;2022-12-26T17:55:17;3.28;;;2.05;;
33724;SDS011;20056;0.000;0.000;2022-12-26T17:57:48;5.10;;;2.47;;
33724;SDS011;20056;0.000;0.000;2022-12-26T18:00:16;6.15;;;2.38;;
33724;SDS011;20056;0.000;0.000;2022-12-26T18:02:43;5.40;;;2.17;;
33724;SDS011;20056;0.000;0.000;2022-12-26T18:05:09;4.85;;;2.40;;
33724;SDS011;20056;0.000;0.000;2022-12-26T18:07:35;4.05;;;2.20;;
33724;SDS011;20056;0.000;0.000;2022-12-26T18:10:00;4.82;;;1.80;;
33724;SDS011;20056;0.000;0.000;2022-12-26T18:12:26;4.30;;;2.17;;
33724;SDS011;20056;0.000;0.000;2022-12-26T18:14:52;4.43;;;1.85;;
33724;SDS011;20056;0.000;0.000;2022-12-26T18:17:18;3.38;;;2.15;;
33724;SDS011;20056;0.000;0.000;2022-12-26T18:19:44;4.43;;;2.05;;
33724;SDS011;20056;0.000;0.000;2022-12-26T18:22:11;7.63;;;2.10;;
33724;SDS011;20056;0.000;0.000;2022-12-26T18:24:38;3.92;;;2.17;;
33724;SDS011;20056;0.000;0.000;2022-12-26T18:27:04;5.85;;;2.20;;
33724;SDS011;20056;0.000;0.000;2022-12-26T18:29:30;3.15;;;2.00;;
33724;SDS011;20056;0.000;0.000;2022-12-26T18:31:55;5.50;;;2.00;;
33724;SDS011;20056;0.000;0.000;2022-12-26T18:34:22;3.50;;;2.10;;
33724;SDS011;20056;0.000;0.000;2022-12-26T18:36:48;8.90;;;2.53;;
33724;SDS011;20056;0.000;0.000;2022-12-26T18:39:14;4.25;;;2.10;;
33724;SDS011;20056;0.000;0.000;2022-12-26T18:41:39;5.47;;;1.88;;
33724;SDS011;20056;0.000;0.000;2022-12-26T18:44:05;4.18;;;2.20;;
33724;SDS011;20056;0.000;0.000;2022-12-26T18:46:31;3.85;;;1.63;;
33724;SDS011;20056;0.000;0.000;2022-12-26T18:48:57;7.53;;;2.15;;
33724;SDS011;20056;0.000;0.000;2022-12-26T18:51:23;4.25;;;1.80;;
33724;SDS011;20056;0.000;0.000;2022-12-26T18:53:49;4.55;;;1.80;;
33724;SDS011;20056;0.000;0.000;2022-12-26T18:56:17;3.25;;;2.08;;
33724;SDS011;20056;0.000;0.000;2022-12-26T18:58:48;4.05;;;2.00;;
33724;SDS011;20056;0.000;0.000;2022-12-26T19:01:15;5.47;;;2.10;;
33724;SDS011;20056;0.000;0.000;2022-12-26T19:03:42;5.57;;;2.42;;
33724;SDS011;20056;0.000;0.000;2022-12-26T19:06:16;4.97;;;1.90;;
33724;SDS011;20056;0.000;0.000;2022-12-26T19:08:46;3.90;;;1.90;;
33724;SDS011;20056;0.000;0.000;2022-12-26T19:11:12;4.63;;;1.90;;
33724;SDS011;20056;0.000;0.000;2022-12-26T19:13:38;4.30;;;1.98;;
33724;SDS011;20056;0.000;0.000;2022-12-26T19:16:04;4.03;;;1.80;;
33724;SDS011;20056;0.000;0.000;2022-12-26T19:18:30;5.38;;;1.90;;
33724;SDS011;20056;0.000;0.000;2022-12-26T19:20:56;4.22;;;1.90;;
33724;SDS011;20056;0.000;0.000;2022-12-26T19:23:21;5.40;;;1.92;;